createdAt,value
2017-12-29T00:00:10.433Z,99251.79
2017-12-29T00:02:37.902Z,99253.38
2017-12-29T00:05:05.342Z,99260.81
2017-12-29T00:07:32.804Z,99260.96
2017-12-29T00:10:00.254Z,99268.52
2017-12-29T00:12:27.719Z,99276.94
2017-12-29T00:14:55.154Z,99278.70
2017-12-29T00:17:22.634Z,99282.98
2017-12-29T00:19:50.106Z,99281.45
2017-12-29T00:22:17.529Z,99286.47
2017-12-29T00:24:44.985Z,99285.90
2017-12-29T00:27:12.426Z,99285.72
2017-12-29T00:29:39.890Z,99290.17
2017-12-29T00:32:07.342Z,99295.45
2017-12-29T00:34:34.796Z,99294.75
2017-12-29T00:37:02.234Z,99293.75
2017-12-29T00:39:29.699Z,99286.75
2017-12-29T00:41:57.137Z,99293.25
2017-12-29T00:44:24.605Z,99294.09
2017-12-29T00:46:52.079Z,99298.84
2017-12-29T00:49:19.539Z,99295.96
2017-12-29T00:51:47.006Z,99303.37
2017-12-29T00:54:14.442Z,99305.95
2017-12-29T00:56:41.901Z,99309.88
2017-12-29T00:59:09.379Z,99309.41
2017-12-29T01:01:36.843Z,99314.72
2017-12-29T01:04:04.290Z,99318.55
2017-12-29T01:06:31.786Z,99320.90
2017-12-29T01:08:59.238Z,99320.67
2017-12-29T01:11:26.699Z,99318.89
2017-12-29T01:13:54.168Z,99320.24
2017-12-29T01:16:21.617Z,99326.07
2017-12-29T01:18:49.078Z,99332.28
2017-12-29T01:21:16.513Z,99329.42
2017-12-29T01:23:43.966Z,99335.94
2017-12-29T01:26:11.401Z,99331.70
2017-12-29T01:28:39.413Z,99322.89
2017-12-29T01:31:06.845Z,99326.38
2017-12-29T01:33:34.298Z,99333.95
2017-12-29T01:36:01.764Z,99328.84
2017-12-29T01:38:29.211Z,99331.83
2017-12-29T01:40:56.677Z,99334.83
2017-12-29T01:43:24.118Z,99331.30
2017-12-29T01:45:51.681Z,99333.61
2017-12-29T01:48:19.149Z,99333.91
2017-12-29T01:50:46.629Z,99335.17
2017-12-29T01:53:14.074Z,99339.13
2017-12-29T01:55:41.541Z,99340.80
2017-12-29T01:58:08.981Z,99344.19
2017-12-29T02:00:36.449Z,99342.05
2017-12-29T02:03:03.889Z,99343.42
2017-12-29T02:05:31.326Z,99344.19
2017-12-29T02:07:58.785Z,99343.30
2017-12-29T02:10:26.221Z,99336.64
2017-12-29T02:12:53.682Z,99342.12
2017-12-29T02:15:22.229Z,99340.23
2017-12-29T02:17:49.690Z,99337.70
2017-12-29T02:20:17.138Z,99333.91
2017-12-29T02:22:44.595Z,99324.50
2017-12-29T02:25:12.043Z,99334.88
2017-12-29T02:27:39.507Z,99336.29
2017-12-29T02:30:06.965Z,99331.98
2017-12-29T02:32:34.422Z,99332.49
2017-12-29T02:35:01.882Z,99334.45
2017-12-29T02:37:29.326Z,99332.11
2017-12-29T02:39:56.782Z,99333.13
2017-12-29T02:42:24.225Z,99331.13
2017-12-29T02:44:51.706Z,99327.59
2017-12-29T02:47:19.151Z,99328.33
2017-12-29T02:49:47.461Z,99332.76
2017-12-29T02:52:14.897Z,99331.20
2017-12-29T02:54:42.342Z,99327.06
2017-12-29T02:57:09.810Z,99324.01
2017-12-29T02:59:37.252Z,99324.78
2017-12-29T03:02:04.710Z,99323.53
2017-12-29T03:04:32.146Z,99316.42
2017-12-29T03:06:59.607Z,99317.58
2017-12-29T03:09:27.050Z,99322.90
2017-12-29T03:11:54.510Z,99318.73
2017-12-29T03:14:21.941Z,99321.92
2017-12-29T03:16:49.373Z,99317.72
2017-12-29T03:19:16.838Z,99319.27
2017-12-29T03:21:44.281Z,99315.16
2017-12-29T03:24:11.746Z,99314.70
2017-12-29T03:26:39.177Z,99311.94
2017-12-29T03:29:06.633Z,99306.44
2017-12-29T03:31:34.074Z,99312.55
2017-12-29T03:34:01.536Z,99311.11
2017-12-29T03:36:28.978Z,99303.14
2017-12-29T03:38:56.418Z,99301.95
2017-12-29T03:41:23.882Z,99304.63
2017-12-29T03:43:51.317Z,99295.66
2017-12-29T03:46:18.769Z,99296.27
2017-12-29T03:48:46.232Z,99296.09
2017-12-29T03:51:13.693Z,99294.34
2017-12-29T03:53:41.130Z,99298.91
2017-12-29T03:56:09.781Z,99299.75
2017-12-29T03:58:37.222Z,99302.75
2017-12-29T04:01:04.674Z,99302.84
2017-12-29T04:03:32.140Z,99301.84
2017-12-29T04:05:59.585Z,99304.06
2017-12-29T04:08:27.037Z,99294.63
2017-12-29T04:10:54.478Z,99302.51
2017-12-29T04:13:21.946Z,99305.66
2017-12-29T04:15:49.391Z,99312.42
2017-12-29T04:18:16.869Z,99309.46
2017-12-29T04:20:44.309Z,99316.39
2017-12-29T04:23:11.760Z,99321.81
2017-12-29T04:25:39.220Z,99316.98
2017-12-29T04:28:06.662Z,99325.94
2017-12-29T04:30:34.126Z,99321.66
2017-12-29T04:33:01.557Z,99323.25
2017-12-29T04:35:29.030Z,99321.14
2017-12-29T04:37:56.470Z,99315.05
2017-12-29T04:40:23.914Z,99320.72
2017-12-29T04:42:51.377Z,99328.96
2017-12-29T04:45:18.809Z,99331.58
2017-12-29T04:47:46.274Z,99330.95
2017-12-29T04:50:13.718Z,99338.22
2017-12-29T04:52:41.181Z,99337.81
2017-12-29T04:55:08.631Z,99342.47
2017-12-29T04:57:36.102Z,99337.95
2017-12-29T05:00:03.542Z,99341.98
2017-12-29T05:02:30.982Z,99341.12
2017-12-29T05:04:58.462Z,99340.98
2017-12-29T05:07:25.901Z,99346.02
2017-12-29T05:09:53.358Z,99344.13
2017-12-29T05:12:20.870Z,99336.39
2017-12-29T05:14:48.336Z,99333.22
2017-12-29T05:17:15.790Z,99334.17
2017-12-29T05:19:43.270Z,99331.31
2017-12-29T05:22:10.710Z,99337.95
2017-12-29T05:24:38.153Z,99339.06
2017-12-29T05:27:05.609Z,99331.44
2017-12-29T05:29:33.050Z,99335.75
2017-12-29T05:32:00.505Z,99339.95
2017-12-29T05:34:28.002Z,99338.56
2017-12-29T05:36:55.462Z,99335.42
2017-12-29T05:39:22.895Z,99339.29
2017-12-29T05:41:50.334Z,99343.04
2017-12-29T05:44:17.790Z,99350.18
2017-12-29T05:46:45.232Z,99351.48
2017-12-29T05:49:12.702Z,99345.08
2017-12-29T05:51:40.150Z,99339.13
2017-12-29T05:54:07.613Z,99332.52
2017-12-29T05:56:35.052Z,99323.84
2017-12-29T05:59:02.518Z,99318.73
2017-12-29T06:01:29.966Z,99318.08
2017-12-29T06:03:57.442Z,99322.59
2017-12-29T06:06:24.890Z,99321.80
2017-12-29T06:08:52.337Z,99325.89
2017-12-29T06:11:19.798Z,99326.86
2017-12-29T06:13:47.244Z,99328.16
2017-12-29T06:16:14.701Z,99317.77
2017-12-29T06:18:42.140Z,99320.83
2017-12-29T06:21:09.606Z,99319.89
2017-12-29T06:23:37.042Z,99327.64
2017-12-29T06:26:04.514Z,99328.09
2017-12-29T06:28:31.953Z,99330.83
2017-12-29T06:30:59.410Z,99327.69
2017-12-29T06:33:26.850Z,99318.97
2017-12-29T06:35:54.329Z,99314.45
2017-12-29T06:38:21.766Z,99315.63
2017-12-29T06:40:49.209Z,99311.47
2017-12-29T06:43:16.667Z,99304.09
2017-12-29T06:45:44.111Z,99304.92
2017-12-29T06:48:11.578Z,99300.77
2017-12-29T06:50:39.018Z,99300.96
2017-12-29T06:53:06.489Z,99305.82
2017-12-29T06:55:33.930Z,99300.63
2017-12-29T06:58:01.386Z,99308.48
2017-12-29T07:00:28.837Z,99313.48
2017-12-29T07:02:56.294Z,99317.48
2017-12-29T07:05:23.737Z,99312.45
2017-12-29T07:07:51.197Z,99324.94
2017-12-29T07:10:18.632Z,99316.56
2017-12-29T07:12:46.094Z,99313.28
2017-12-29T07:15:13.535Z,99307.98
2017-12-29T07:17:41.000Z,99316.80
2017-12-29T07:20:08.454Z,99309.46
2017-12-29T07:22:35.917Z,99304.43
2017-12-29T07:25:03.365Z,99309.50
2017-12-29T07:27:30.825Z,99307.30
2017-12-29T07:29:58.261Z,99305.23
2017-12-29T07:32:25.717Z,99303.39
2017-12-29T07:34:53.162Z,99294.98
2017-12-29T07:37:20.625Z,99296.35
2017-12-29T07:39:48.057Z,99295.94
2017-12-29T07:42:15.506Z,99296.78
2017-12-29T07:44:42.947Z,99301.94
2017-12-29T07:47:10.410Z,99306.80
2017-12-29T07:49:37.850Z,99304.64
2017-12-29T07:52:05.336Z,99299.47
2017-12-29T07:54:32.829Z,99304.54
2017-12-29T07:57:00.242Z,99295.62
2017-12-29T07:59:27.694Z,99293.59
2017-12-29T08:01:55.309Z,99289.76
2017-12-29T08:04:22.767Z,99290.77
2017-12-29T08:06:50.206Z,99286.51
2017-12-29T08:09:17.661Z,99288.64
2017-12-29T08:11:45.103Z,99291.48
2017-12-29T08:14:12.566Z,99289.01
2017-12-29T08:16:40.022Z,99280.67
2017-12-29T08:19:07.477Z,99287.31
2017-12-29T08:21:34.918Z,99291.61
2017-12-29T08:24:02.378Z,99291.98
2017-12-29T08:26:29.826Z,99282.58
2017-12-29T08:28:57.297Z,99278.21
2017-12-29T08:31:24.737Z,99277.83
2017-12-29T08:33:52.193Z,99274.67
2017-12-29T08:36:19.638Z,99272.02
2017-12-29T08:38:47.102Z,99265.78
2017-12-29T08:41:14.542Z,99263.47
2017-12-29T08:43:41.998Z,99257.56
2017-12-29T08:46:09.446Z,99252.28
2017-12-29T08:48:36.902Z,99247.59
2017-12-29T08:51:04.345Z,99248.52
2017-12-29T08:53:31.809Z,99244.25
2017-12-29T08:55:59.278Z,99237.95
2017-12-29T08:58:26.733Z,99233.72
2017-12-29T09:00:54.182Z,99233.05
2017-12-29T09:03:21.646Z,99230.78
2017-12-29T09:05:49.102Z,99224.33
2017-12-29T09:08:16.574Z,99212.88
2017-12-29T09:10:44.021Z,99200.60
2017-12-29T09:13:11.494Z,99201.83
2017-12-29T09:15:38.942Z,99195.83
2017-12-29T09:18:06.382Z,99193.23
2017-12-29T09:20:33.841Z,99188.21
2017-12-29T09:23:01.281Z,99180.02
2017-12-29T09:25:28.757Z,99179.61
2017-12-29T09:27:56.198Z,99189.98
2017-12-29T09:30:23.657Z,99183.63
2017-12-29T09:32:51.104Z,99180.15
2017-12-29T09:35:18.561Z,99171.44
2017-12-29T09:37:46.002Z,99170.84
2017-12-29T09:40:13.474Z,99172.97
2017-12-29T09:42:40.919Z,99165.16
2017-12-29T09:45:08.386Z,99150.44
2017-12-29T09:47:35.830Z,99158.38
2017-12-29T09:50:04.018Z,99157.06
2017-12-29T09:52:31.487Z,99160.44
2017-12-29T09:54:58.942Z,99157.27
2017-12-29T09:57:26.386Z,99153.92
2017-12-29T09:59:53.851Z,99147.95
2017-12-29T10:02:21.295Z,99134.30
2017-12-29T10:04:48.762Z,99146.49
2017-12-29T10:07:16.202Z,99137.86
2017-12-29T10:09:43.658Z,99132.69
2017-12-29T10:12:11.094Z,99130.29
2017-12-29T10:14:38.557Z,99127.38
2017-12-29T10:17:05.998Z,99120.47
2017-12-29T10:19:33.458Z,99131.25
2017-12-29T10:22:00.894Z,99121.06
2017-12-29T10:24:28.354Z,99127.24
2017-12-29T10:26:55.794Z,99122.11
2017-12-29T10:29:23.255Z,99110.55
2017-12-29T10:31:50.710Z,99118.86
2017-12-29T10:34:18.183Z,99104.36
2017-12-29T10:36:45.622Z,99106.94
2017-12-29T10:39:13.064Z,99101.95
2017-12-29T10:41:40.530Z,99100.08
2017-12-29T10:44:07.969Z,99083.08
2017-12-29T10:46:35.425Z,99075.11
2017-12-29T10:49:02.869Z,99067.76
2017-12-29T10:51:30.329Z,99055.73
2017-12-29T10:53:57.776Z,99036.03
2017-12-29T10:56:25.242Z,99041.66
2017-12-29T10:58:52.682Z,99029.49
2017-12-29T11:01:20.141Z,99022.67
2017-12-29T11:03:47.582Z,99017.02
2017-12-29T11:06:15.042Z,99013.38
2017-12-29T11:08:42.479Z,99007.78
2017-12-29T11:11:09.959Z,98998.97
2017-12-29T11:13:37.402Z,98995.34
2017-12-29T11:16:04.862Z,98993.03
2017-12-29T11:18:32.302Z,98986.66
2017-12-29T11:20:59.784Z,98979.67
2017-12-29T11:23:27.226Z,98968.70
2017-12-29T11:25:54.714Z,98966.23
2017-12-29T11:28:22.176Z,98954.88
2017-12-29T11:30:49.625Z,98957.08
2017-12-29T11:33:17.075Z,98963.72
2017-12-29T11:35:44.534Z,98949.04
2017-12-29T11:38:11.975Z,98946.76
2017-12-29T11:40:39.430Z,98954.13
2017-12-29T11:43:06.879Z,98938.56
2017-12-29T11:45:34.342Z,98940.89
2017-12-29T11:48:01.783Z,98941.63
2017-12-29T11:50:29.247Z,98950.38
2017-12-29T11:52:56.694Z,98947.55
2017-12-29T11:55:24.171Z,98954.45
2017-12-29T11:57:51.610Z,98944.73
2017-12-29T12:00:19.082Z,98938.48
2017-12-29T12:02:46.546Z,98939.81
2017-12-29T12:05:13.990Z,98932.58
2017-12-29T12:07:41.449Z,98926.72
2017-12-29T12:10:08.890Z,98926.61
2017-12-29T12:12:36.358Z,98922.03
2017-12-29T12:15:03.805Z,98913.99
2017-12-29T12:17:31.272Z,98900.16
2017-12-29T12:19:58.714Z,98897.12
2017-12-29T12:22:26.178Z,98875.70
2017-12-29T12:24:53.617Z,98868.36
2017-12-29T12:27:21.083Z,98864.21
2017-12-29T12:29:48.525Z,98864.77
2017-12-29T12:32:16.034Z,98863.61
2017-12-29T12:34:43.476Z,98852.84
2017-12-29T12:37:10.934Z,98852.34
2017-12-29T12:39:38.369Z,98843.88
2017-12-29T12:42:05.834Z,98840.38
2017-12-29T12:44:33.282Z,98832.25
2017-12-29T12:47:00.738Z,98819.42
2017-12-29T12:49:28.186Z,98807.19
2017-12-29T12:51:55.647Z,98786.71
2017-12-29T12:54:23.096Z,98780.63
2017-12-29T12:56:50.562Z,98773.06
2017-12-29T12:59:18.013Z,98770.48
2017-12-29T13:01:45.475Z,98755.91
2017-12-29T13:04:12.918Z,98754.52
2017-12-29T13:06:40.387Z,98750.49
2017-12-29T13:09:07.830Z,98732.14
2017-12-29T13:11:35.322Z,98733.34
2017-12-29T13:14:02.757Z,98723.98
2017-12-29T13:16:30.226Z,98711.61
2017-12-29T13:18:58.598Z,98703.78
2017-12-29T13:21:26.039Z,98702.73
2017-12-29T13:23:53.502Z,98694.07
2017-12-29T13:26:20.956Z,98676.47
2017-12-29T13:28:48.418Z,98675.55
2017-12-29T13:31:15.858Z,98658.40
2017-12-29T13:33:43.326Z,98646.53
2017-12-29T13:36:10.776Z,98664.24
2017-12-29T13:38:38.233Z,98641.66
2017-12-29T13:41:05.665Z,98640.95
2017-12-29T13:43:33.121Z,98642.67
2017-12-29T13:46:00.567Z,98619.55
2017-12-29T13:48:28.030Z,98616.31
2017-12-29T13:50:55.479Z,98610.05
2017-12-29T13:53:22.946Z,98599.05
2017-12-29T13:55:50.386Z,98593.92
2017-12-29T13:58:17.845Z,98586.91
2017-12-29T14:00:45.282Z,98575.34
2017-12-29T14:03:12.747Z,98549.38
2017-12-29T14:05:40.187Z,98550.63
2017-12-29T14:08:07.637Z,98537.21
2017-12-29T14:10:35.080Z,98522.11
2017-12-29T14:13:02.541Z,98522.98
2017-12-29T14:15:29.986Z,98526.62
2017-12-29T14:17:57.450Z,98536.78
2017-12-29T14:20:24.885Z,98520.20
2017-12-29T14:22:52.341Z,98519.69
2017-12-29T14:25:19.785Z,98497.11
2017-12-29T14:27:47.246Z,98505.19
2017-12-29T14:30:14.684Z,98498.24
2017-12-29T14:32:42.150Z,98501.45
2017-12-29T14:35:09.587Z,98499.53
2017-12-29T14:37:37.053Z,98500.75
2017-12-29T14:40:04.489Z,98500.43
2017-12-29T14:42:31.926Z,98492.55
2017-12-29T14:44:59.640Z,98512.39
2017-12-29T14:47:27.113Z,98508.64
2017-12-29T14:49:54.573Z,98497.27
2017-12-29T14:52:22.006Z,98498.84
2017-12-29T14:54:49.465Z,98492.27
2017-12-29T14:57:16.912Z,98483.85
2017-12-29T14:59:44.450Z,98488.88
2017-12-29T15:02:11.895Z,98492.92
2017-12-29T15:04:39.729Z,98482.45
2017-12-29T15:07:07.644Z,98465.85
2017-12-29T15:09:35.154Z,98471.36
2017-12-29T15:12:02.602Z,98463.70
2017-12-29T15:14:30.062Z,98461.34
2017-12-29T15:16:57.519Z,98453.77
2017-12-29T15:19:25.010Z,98441.70
2017-12-29T15:21:52.541Z,98433.08
2017-12-29T15:24:20.016Z,98436.39
2017-12-29T15:26:47.463Z,98427.65
2017-12-29T15:29:14.961Z,98425.11
2017-12-29T15:31:42.407Z,98422.14
2017-12-29T15:34:09.863Z,98410.59
2017-12-29T15:36:37.302Z,98409.87
2017-12-29T15:39:04.762Z,98415.34
2017-12-29T15:41:32.194Z,98429.60
2017-12-29T15:43:59.661Z,98406.92
2017-12-29T15:46:27.309Z,98402.93
2017-12-29T15:48:54.777Z,98391.24
2017-12-29T15:51:29.697Z,98397.06
2017-12-29T15:53:57.169Z,98389.95
2017-12-29T15:56:24.633Z,98392.99
2017-12-29T15:58:52.096Z,98385.94
2017-12-29T16:01:23.046Z,98380.77
2017-12-29T16:03:50.547Z,98372.08
2017-12-29T16:06:17.962Z,98370.72
2017-12-29T16:08:45.409Z,98349.31
2017-12-29T16:11:12.874Z,98345.91
2017-12-29T16:13:40.319Z,98341.73
2017-12-29T16:16:07.784Z,98344.97
2017-12-29T16:18:35.232Z,98353.86
2017-12-29T16:21:02.699Z,98347.16
2017-12-29T16:23:30.148Z,98347.99
2017-12-29T16:25:57.606Z,98340.53
2017-12-29T16:28:25.042Z,98348.78
2017-12-29T16:30:52.502Z,98335.27
2017-12-29T16:33:19.943Z,98339.84
2017-12-29T16:35:47.401Z,98322.92
2017-12-29T16:38:14.842Z,98326.58
2017-12-29T16:40:42.301Z,98321.19
2017-12-29T16:43:09.741Z,98328.73
2017-12-29T16:45:37.201Z,98318.53
2017-12-29T16:48:04.654Z,98316.04
2017-12-29T16:50:32.126Z,98316.83
2017-12-29T16:52:59.566Z,98318.03
2017-12-29T16:55:27.026Z,98320.04
2017-12-29T16:57:54.471Z,98301.84
2017-12-29T17:00:21.933Z,98308.04
2017-12-29T17:02:49.369Z,98306.94
2017-12-29T17:05:16.834Z,98294.38
2017-12-29T17:07:44.291Z,98297.05
2017-12-29T17:10:11.757Z,98291.64
2017-12-29T17:12:39.198Z,98294.05
2017-12-29T17:15:06.678Z,98286.94
2017-12-29T17:17:34.139Z,98291.80
2017-12-29T17:20:01.602Z,98281.89
2017-12-29T17:22:29.047Z,98286.46
2017-12-29T17:24:56.529Z,98288.42
2017-12-29T17:27:23.969Z,98294.53
2017-12-29T17:29:51.413Z,98286.84
2017-12-29T17:32:18.870Z,98285.87
2017-12-29T17:34:46.317Z,98292.58
2017-12-29T17:37:13.779Z,98297.58
2017-12-29T17:39:41.226Z,98297.02
2017-12-29T17:42:08.694Z,98293.00
2017-12-29T17:44:36.138Z,98295.77
2017-12-29T17:47:03.601Z,98301.30
2017-12-29T17:49:31.161Z,98291.26
2017-12-29T17:51:58.611Z,98294.49
2017-12-29T17:54:26.063Z,98300.12
2017-12-29T17:56:53.523Z,98307.64
2017-12-29T17:59:20.963Z,98309.39
2017-12-29T18:01:48.430Z,98310.98
2017-12-29T18:04:15.878Z,98313.78
2017-12-29T18:06:43.338Z,98307.84
2017-12-29T18:09:10.782Z,98314.75
2017-12-29T18:11:38.233Z,98325.80
2017-12-29T18:14:05.674Z,98325.40
2017-12-29T18:16:33.139Z,98324.87
2017-12-29T18:19:00.585Z,98322.84
2017-12-29T18:21:28.070Z,98327.53
2017-12-29T18:23:55.509Z,98326.87
2017-12-29T18:26:22.979Z,98327.30
2017-12-29T18:28:50.428Z,98335.27
2017-12-29T18:31:17.904Z,98334.31
2017-12-29T18:33:45.352Z,98332.31
2017-12-29T18:36:12.810Z,98332.75
2017-12-29T18:38:40.250Z,98323.83
2017-12-29T18:41:07.726Z,98336.42
2017-12-29T18:43:35.165Z,98338.77
2017-12-29T18:46:02.631Z,98343.30
2017-12-29T18:48:30.094Z,98348.85
2017-12-29T18:50:57.549Z,98353.38
2017-12-29T18:53:25.026Z,98350.69
2017-12-29T18:55:52.467Z,98364.10
2017-12-29T18:58:19.930Z,98365.45
2017-12-29T19:00:47.373Z,98368.03
2017-12-29T19:03:14.850Z,98371.38
2017-12-29T19:05:42.297Z,98375.53
2017-12-29T19:08:09.757Z,98377.78
2017-12-29T19:10:37.202Z,98383.77
2017-12-29T19:13:04.666Z,98386.83
2017-12-29T19:15:32.121Z,98398.00
2017-12-29T19:17:59.589Z,98404.73
2017-12-29T19:20:27.035Z,98414.84
2017-12-29T19:22:54.498Z,98429.67
2017-12-29T19:25:21.943Z,98415.52
2017-12-29T19:27:49.417Z,98423.30
2017-12-29T19:30:16.866Z,98438.88
2017-12-29T19:32:44.344Z,98436.90
2017-12-29T19:35:11.790Z,98433.71
2017-12-29T19:37:39.254Z,98444.86
2017-12-29T19:40:06.693Z,98448.30
2017-12-29T19:42:34.155Z,98449.77
2017-12-29T19:45:01.595Z,98461.16
2017-12-29T19:47:29.053Z,98452.31
2017-12-29T19:49:56.506Z,98459.16
2017-12-29T19:52:23.966Z,98470.09
2017-12-29T19:54:51.430Z,98466.22
2017-12-29T19:57:18.894Z,98472.38
2017-12-29T19:59:46.347Z,98475.16
2017-12-29T20:02:13.818Z,98481.53
2017-12-29T20:04:41.259Z,98486.61
2017-12-29T20:07:08.702Z,98481.89
2017-12-29T20:09:36.153Z,98490.09
2017-12-29T20:12:03.594Z,98497.92
2017-12-29T20:14:31.051Z,98510.27
2017-12-29T20:16:58.494Z,98520.89
2017-12-29T20:19:25.958Z,98526.81
2017-12-29T20:21:53.398Z,98539.59
2017-12-29T20:24:21.745Z,98549.45
2017-12-29T20:26:49.189Z,98552.86
2017-12-29T20:29:16.653Z,98566.11
2017-12-29T20:31:44.093Z,98572.41
2017-12-29T20:34:11.555Z,98575.01
2017-12-29T20:36:38.995Z,98565.95
2017-12-29T20:39:06.453Z,98581.92
2017-12-29T20:41:33.896Z,98581.58
2017-12-29T20:44:01.372Z,98577.98
2017-12-29T20:46:28.815Z,98579.38
2017-12-29T20:48:56.277Z,98587.50
2017-12-29T20:51:23.717Z,98592.09
2017-12-29T20:53:51.177Z,98589.38
2017-12-29T20:56:18.618Z,98594.73
2017-12-29T20:58:46.075Z,98601.19
2017-12-29T21:01:13.513Z,98609.41
2017-12-29T21:03:40.982Z,98611.26
2017-12-29T21:06:08.422Z,98622.28
2017-12-29T21:08:35.883Z,98617.53
2017-12-29T21:11:03.326Z,98619.16
2017-12-29T21:13:30.794Z,98629.93
2017-12-29T21:15:58.288Z,98632.91
2017-12-29T21:18:25.732Z,98638.49
2017-12-29T21:20:53.171Z,98649.94
2017-12-29T21:23:20.626Z,98655.98
2017-12-29T21:25:48.069Z,98655.89
2017-12-29T21:28:15.543Z,98661.17
2017-12-29T21:30:42.989Z,98664.16
2017-12-29T21:33:10.465Z,98672.83
2017-12-29T21:35:37.925Z,98684.83
2017-12-29T21:38:05.370Z,98693.68
2017-12-29T21:40:32.833Z,98699.28
2017-12-29T21:43:00.282Z,98704.27
2017-12-29T21:45:27.765Z,98708.28
2017-12-29T21:47:55.218Z,98717.28
2017-12-29T21:50:22.683Z,98712.96
2017-12-29T21:52:50.130Z,98715.39
2017-12-29T21:55:17.601Z,98714.40
2017-12-29T21:57:45.051Z,98713.00
2017-12-29T22:00:12.511Z,98717.06
2017-12-29T22:02:39.954Z,98728.78
2017-12-29T22:05:07.445Z,98737.28
2017-12-29T22:07:34.896Z,98737.16
2017-12-29T22:10:02.338Z,98741.69
2017-12-29T22:12:29.795Z,98734.95
2017-12-29T22:14:57.253Z,98748.36
2017-12-29T22:17:24.731Z,98752.50
2017-12-29T22:19:52.183Z,98763.81
2017-12-29T22:22:19.657Z,98767.55
2017-12-29T22:24:47.102Z,98772.03
2017-12-29T22:27:14.577Z,98773.41
2017-12-29T22:29:42.010Z,98775.95
2017-12-29T22:32:09.456Z,98779.83
2017-12-29T22:34:36.923Z,98782.40
2017-12-29T22:37:04.375Z,98802.33
2017-12-29T22:39:31.852Z,98802.86
2017-12-29T22:41:59.306Z,98811.63
2017-12-29T22:44:26.770Z,98822.94
2017-12-29T22:46:54.238Z,98830.07
2017-12-29T22:49:21.717Z,98824.40
2017-12-29T22:51:49.166Z,98830.62
2017-12-29T22:54:16.639Z,98835.03
2017-12-29T22:56:44.081Z,98836.61
2017-12-29T22:59:11.537Z,98828.95
2017-12-29T23:01:38.997Z,98840.80
2017-12-29T23:04:06.434Z,98843.56
2017-12-29T23:06:33.897Z,98847.52
2017-12-29T23:09:01.363Z,98851.14
2017-12-29T23:11:28.829Z,98843.48
2017-12-29T23:13:56.268Z,98854.32
2017-12-29T23:16:23.730Z,98852.13
2017-12-29T23:18:51.170Z,98849.66
2017-12-29T23:21:18.637Z,98859.59
2017-12-29T23:23:46.086Z,98854.30
2017-12-29T23:26:13.531Z,98865.20
2017-12-29T23:28:40.994Z,98871.47
2017-12-29T23:31:08.437Z,98867.11
2017-12-29T23:33:35.910Z,98863.53
2017-12-29T23:36:03.355Z,98862.22
2017-12-29T23:38:30.818Z,98860.17
2017-12-29T23:40:58.261Z,98868.94
2017-12-29T23:43:25.730Z,98876.52
2017-12-29T23:45:53.175Z,98877.64
2017-12-29T23:48:20.618Z,98882.78
2017-12-29T23:50:48.078Z,98886.07
2017-12-29T23:53:15.522Z,98894.88
2017-12-29T23:55:42.987Z,98895.29
2017-12-29T23:58:10.441Z,98892.80
